sensor_id;sensor_type;location;lat;lon;timestamp;pressure;altitude;pressure_sealevel;temperature;humidity
77086;BME280;66014;53.134;18.006;2023-06-04T00:01:14;101722.42;;;13.16;43.20
77086;BME280;66014;53.134;18.006;2023-06-04T00:03:52;101725.66;;;13.11;43.46
77086;BME280;66014;53.134;18.006;2023-06-04T00:06:25;101726.95;;;13.07;43.56
77086;BME280;66014;53.134;18.006;2023-06-04T00:08:57;101723.08;;;13.04;43.70
77086;BME280;66014;53.134;18.006;2023-06-04T00:12:01;101721.30;;;12.99;43.85
77086;BME280;66014;53.134;18.006;2023-06-04T00:14:55;101717.17;;;12.96;43.83
77086;BME280;66014;53.134;18.006;2023-06-04T00:17:55;101716.23;;;12.93;43.86
77086;BME280;66014;53.134;18.006;2023-06-04T00:32:14;101710.42;;;13.23;43.90
77086;BME280;66014;53.134;18.006;2023-06-04T00:38:17;101703.70;;;13.09;44.30
77086;BME280;66014;53.134;18.006;2023-06-04T00:40:54;101703.98;;;13.02;44.32
77086;BME280;66014;53.134;18.006;2023-06-04T00:43:26;101698.32;;;12.95;44.41
77086;BME280;66014;53.134;18.006;2023-06-04T00:45:57;101699.34;;;12.89;44.40
77086;BME280;66014;53.134;18.006;2023-06-04T00:48:25;101698.70;;;12.84;44.72
77086;BME280;66014;53.134;18.006;2023-06-04T00:50:53;101694.16;;;12.77;44.79
77086;BME280;66014;53.134;18.006;2023-06-04T00:53:20;101696.69;;;12.70;44.85
77086;BME280;66014;53.134;18.006;2023-06-04T00:55:48;101696.38;;;12.65;45.05
77086;BME280;66014;53.134;18.006;2023-06-04T00:58:14;101699.81;;;12.59;45.05
77086;BME280;66014;53.134;18.006;2023-06-04T01:00:42;101705.33;;;12.56;45.14
77086;BME280;66014;53.134;18.006;2023-06-04T01:03:13;101693.63;;;12.52;45.30
77086;BME280;66014;53.134;18.006;2023-06-04T01:05:53;101695.89;;;12.48;45.37
77086;BME280;66014;53.134;18.006;2023-06-04T01:08:20;101694.41;;;12.44;45.46
77086;BME280;66014;53.134;18.006;2023-06-04T01:10:53;101691.83;;;12.38;45.65
77086;BME280;66014;53.134;18.006;2023-06-04T01:13:20;101689.02;;;12.33;45.55
77086;BME280;66014;53.134;18.006;2023-06-04T01:15:45;101693.56;;;12.27;45.68
77086;BME280;66014;53.134;18.006;2023-06-04T01:18:15;101694.04;;;12.17;45.69
77086;BME280;66014;53.134;18.006;2023-06-04T01:21:08;101696.92;;;12.09;45.82
77086;BME280;66014;53.134;18.006;2023-06-04T01:23:51;101696.39;;;12.04;45.99
77086;BME280;66014;53.134;18.006;2023-06-04T01:26:31;101698.42;;;12.00;46.24
77086;BME280;66014;53.134;18.006;2023-06-04T01:29:00;101697.84;;;11.97;46.32
77086;BME280;66014;53.134;18.006;2023-06-04T01:31:27;101701.34;;;11.92;46.37
77086;BME280;66014;53.134;18.006;2023-06-04T01:33:58;101701.43;;;11.87;46.33
77086;BME280;66014;53.134;18.006;2023-06-04T01:36:24;101701.92;;;11.80;46.54
77086;BME280;66014;53.134;18.006;2023-06-04T01:38:51;101701.42;;;11.72;46.54
77086;BME280;66014;53.134;18.006;2023-06-04T01:47:23;101704.75;;;11.53;47.17
77086;BME280;66014;53.134;18.006;2023-06-04T01:49:49;101704.58;;;11.50;47.39
77086;BME280;66014;53.134;18.006;2023-06-04T01:52:16;101705.23;;;11.47;47.46
77086;BME280;66014;53.134;18.006;2023-06-04T01:54:42;101706.23;;;11.44;47.68
77086;BME280;66014;53.134;18.006;2023-06-04T01:57:10;101704.02;;;11.43;47.47
77086;BME280;66014;53.134;18.006;2023-06-04T01:59:38;101705.23;;;11.40;47.52
77086;BME280;66014;53.134;18.006;2023-06-04T02:02:04;101704.67;;;11.35;47.68
77086;BME280;66014;53.134;18.006;2023-06-04T02:04:30;101705.27;;;11.31;47.93
77086;BME280;66014;53.134;18.006;2023-06-04T02:07:00;101703.26;;;11.29;48.30
77086;BME280;66014;53.134;18.006;2023-06-04T02:09:26;101704.55;;;11.26;48.43
77086;BME280;66014;53.134;18.006;2023-06-04T02:11:52;101707.38;;;11.26;48.56
77086;BME280;66014;53.134;18.006;2023-06-04T02:14:17;101708.44;;;11.26;48.69
77086;BME280;66014;53.134;18.006;2023-06-04T02:16:50;101709.45;;;11.25;48.75
77086;BME280;66014;53.134;18.006;2023-06-04T02:19:16;101704.73;;;11.25;49.10
77086;BME280;66014;53.134;18.006;2023-06-04T02:21:44;101706.71;;;11.24;49.42
77086;BME280;66014;53.134;18.006;2023-06-04T02:24:10;101703.58;;;11.24;49.46
77086;BME280;66014;53.134;18.006;2023-06-04T02:26:36;101705.77;;;11.23;49.64
77086;BME280;66014;53.134;18.006;2023-06-04T02:29:02;101707.05;;;11.23;49.49
77086;BME280;66014;53.134;18.006;2023-06-04T02:31:28;101709.23;;;11.22;49.28
77086;BME280;66014;53.134;18.006;2023-06-04T02:33:55;101707.12;;;11.20;49.17
77086;BME280;66014;53.134;18.006;2023-06-04T02:36:21;101708.11;;;11.19;49.17
77086;BME280;66014;53.134;18.006;2023-06-04T02:38:47;101708.41;;;11.18;49.43
77086;BME280;66014;53.134;18.006;2023-06-04T02:41:13;101704.52;;;11.16;49.24
77086;BME280;66014;53.134;18.006;2023-06-04T02:43:38;101706.69;;;11.11;49.25
77086;BME280;66014;53.134;18.006;2023-06-04T02:46:05;101710.64;;;11.07;49.28
77086;BME280;66014;53.134;18.006;2023-06-04T02:48:32;101709.81;;;11.03;49.46
77086;BME280;66014;53.134;18.006;2023-06-04T02:50:57;101712.23;;;11.00;49.40
77086;BME280;66014;53.134;18.006;2023-06-04T02:53:23;101713.94;;;10.97;49.60
77086;BME280;66014;53.134;18.006;2023-06-04T02:55:52;101709.83;;;10.92;49.61
77086;BME280;66014;53.134;18.006;2023-06-04T02:58:21;101706.54;;;10.86;49.59
77086;BME280;66014;53.134;18.006;2023-06-04T03:00:52;101700.61;;;10.82;49.71
77086;BME280;66014;53.134;18.006;2023-06-04T03:03:21;101699.95;;;10.78;49.85
77086;BME280;66014;53.134;18.006;2023-06-04T03:05:48;101698.01;;;10.76;49.74
77086;BME280;66014;53.134;18.006;2023-06-04T03:08:16;101696.59;;;10.74;49.96
77086;BME280;66014;53.134;18.006;2023-06-04T03:10:43;101694.63;;;10.74;50.40
77086;BME280;66014;53.134;18.006;2023-06-04T03:13:09;101692.36;;;10.74;51.04
77086;BME280;66014;53.134;18.006;2023-06-04T03:15:35;101695.59;;;10.72;51.70
77086;BME280;66014;53.134;18.006;2023-06-04T03:18:06;101699.73;;;10.71;51.68
77086;BME280;66014;53.134;18.006;2023-06-04T03:20:32;101700.98;;;10.74;51.62
77086;BME280;66014;53.134;18.006;2023-06-04T03:23:05;101704.83;;;10.81;51.52
77086;BME280;66014;53.134;18.006;2023-06-04T03:25:34;101706.11;;;10.85;51.34
77086;BME280;66014;53.134;18.006;2023-06-04T03:28:00;101711.03;;;10.89;51.23
77086;BME280;66014;53.134;18.006;2023-06-04T03:30:26;101707.98;;;10.91;51.09
77086;BME280;66014;53.134;18.006;2023-06-04T03:32:53;101709.42;;;10.91;51.04
77086;BME280;66014;53.134;18.006;2023-06-04T03:35:20;101710.69;;;10.91;50.78
77086;BME280;66014;53.134;18.006;2023-06-04T03:37:48;101710.67;;;10.89;50.85
77086;BME280;66014;53.134;18.006;2023-06-04T03:40:14;101705.90;;;10.87;50.81
77086;BME280;66014;53.134;18.006;2023-06-04T03:42:40;101706.51;;;10.86;51.04
77086;BME280;66014;53.134;18.006;2023-06-04T03:45:10;101706.58;;;10.84;51.18
77086;BME280;66014;53.134;18.006;2023-06-04T03:47:38;101704.23;;;10.84;51.33
77086;BME280;66014;53.134;18.006;2023-06-04T03:50:06;101702.44;;;10.85;51.49
77086;BME280;66014;53.134;18.006;2023-06-04T03:52:33;101700.66;;;10.86;51.56
77086;BME280;66014;53.134;18.006;2023-06-04T03:55:01;101701.73;;;10.88;51.77
77086;BME280;66014;53.134;18.006;2023-06-04T03:57:29;101699.27;;;10.91;52.07
77086;BME280;66014;53.134;18.006;2023-06-04T03:59:56;101700.96;;;10.96;52.10
77086;BME280;66014;53.134;18.006;2023-06-04T04:02:22;101701.85;;;11.02;52.30
77086;BME280;66014;53.134;18.006;2023-06-04T04:04:48;101701.87;;;11.11;52.62
77086;BME280;66014;53.134;18.006;2023-06-04T04:07:16;101706.70;;;11.21;52.47
77086;BME280;66014;53.134;18.006;2023-06-04T04:09:43;101704.23;;;11.29;52.76
77086;BME280;66014;53.134;18.006;2023-06-04T04:12:10;101706.77;;;11.36;52.49
77086;BME280;66014;53.134;18.006;2023-06-04T04:14:36;101702.67;;;11.41;52.55
77086;BME280;66014;53.134;18.006;2023-06-04T04:17:03;101700.41;;;11.44;52.10
77086;BME280;66014;53.134;18.006;2023-06-04T04:19:29;101697.98;;;11.43;52.41
77086;BME280;66014;53.134;18.006;2023-06-04T04:21:55;101701.63;;;11.44;52.18
77086;BME280;66014;53.134;18.006;2023-06-04T04:24:28;101701.44;;;11.48;52.12
77086;BME280;66014;53.134;18.006;2023-06-04T04:26:54;101700.27;;;11.50;51.99
77086;BME280;66014;53.134;18.006;2023-06-04T04:29:22;101697.32;;;11.48;52.17
77086;BME280;66014;53.134;18.006;2023-06-04T04:31:49;101695.55;;;11.43;52.31
77086;BME280;66014;53.134;18.006;2023-06-04T04:34:20;101698.29;;;11.44;52.12
77086;BME280;66014;53.134;18.006;2023-06-04T04:36:47;101696.80;;;11.49;51.82
77086;BME280;66014;53.134;18.006;2023-06-04T04:39:25;101699.48;;;11.54;51.68
77086;BME280;66014;53.134;18.006;2023-06-04T04:41:51;101698.13;;;11.59;51.61
77086;BME280;66014;53.134;18.006;2023-06-04T04:44:17;101699.30;;;11.63;51.40
77086;BME280;66014;53.134;18.006;2023-06-04T04:46:43;101696.27;;;11.67;51.25
77086;BME280;66014;53.134;18.006;2023-06-04T04:49:09;101693.81;;;11.71;51.18
77086;BME280;66014;53.134;18.006;2023-06-04T04:51:35;101693.76;;;11.77;51.10
77086;BME280;66014;53.134;18.006;2023-06-04T04:54:03;101694.55;;;11.86;50.92
77086;BME280;66014;53.134;18.006;2023-06-04T04:56:33;101693.52;;;11.96;50.75
77086;BME280;66014;53.134;18.006;2023-06-04T04:59:00;101696.64;;;12.06;50.51
77086;BME280;66014;53.134;18.006;2023-06-04T05:01:26;101694.58;;;12.17;50.18
77086;BME280;66014;53.134;18.006;2023-06-04T05:03:52;101698.67;;;12.27;49.97
77086;BME280;66014;53.134;18.006;2023-06-04T05:06:18;101697.46;;;12.37;49.98
77086;BME280;66014;53.134;18.006;2023-06-04T05:08:45;101697.45;;;12.47;49.61
77086;BME280;66014;53.134;18.006;2023-06-04T05:11:11;101698.80;;;12.54;49.56
77086;BME280;66014;53.134;18.006;2023-06-04T05:13:36;101699.42;;;12.60;49.42
77086;BME280;66014;53.134;18.006;2023-06-04T05:16:03;101703.20;;;12.67;49.40
77086;BME280;66014;53.134;18.006;2023-06-04T05:18:33;101703.60;;;12.77;49.21
77086;BME280;66014;53.134;18.006;2023-06-04T05:21:00;101703.52;;;12.87;49.06
77086;BME280;66014;53.134;18.006;2023-06-04T05:23:28;101706.46;;;12.96;48.81
77086;BME280;66014;53.134;18.006;2023-06-04T05:25:58;101709.33;;;13.07;48.56
77086;BME280;66014;53.134;18.006;2023-06-04T05:28:25;101705.85;;;13.18;48.27
77086;BME280;66014;53.134;18.006;2023-06-04T05:30:51;101706.74;;;13.27;48.03
77086;BME280;66014;53.134;18.006;2023-06-04T05:33:18;101709.34;;;13.37;47.73
77086;BME280;66014;53.134;18.006;2023-06-04T05:35:47;101705.81;;;13.48;47.36
77086;BME280;66014;53.134;18.006;2023-06-04T05:38:17;101710.91;;;13.55;47.13
77086;BME280;66014;53.134;18.006;2023-06-04T05:40:53;101711.90;;;13.60;46.82
77086;BME280;66014;53.134;18.006;2023-06-04T05:43:20;101713.76;;;13.69;46.75
77086;BME280;66014;53.134;18.006;2023-06-04T05:45:47;101717.67;;;13.77;46.43
77086;BME280;66014;53.134;18.006;2023-06-04T05:48:13;101723.27;;;13.84;46.45
77086;BME280;66014;53.134;18.006;2023-06-04T05:50:38;101724.54;;;13.91;46.40
77086;BME280;66014;53.134;18.006;2023-06-04T05:53:04;101725.09;;;14.01;46.21
77086;BME280;66014;53.134;18.006;2023-06-04T05:55:30;101723.99;;;14.15;45.97
77086;BME280;66014;53.134;18.006;2023-06-04T05:57:56;101727.18;;;14.37;45.57
77086;BME280;66014;53.134;18.006;2023-06-04T06:00:22;101727.36;;;14.66;44.87
77086;BME280;66014;53.134;18.006;2023-06-04T06:02:52;101727.52;;;15.03;44.40
77086;BME280;66014;53.134;18.006;2023-06-04T06:05:19;101728.73;;;15.54;43.72
77086;BME280;66014;53.134;18.006;2023-06-04T06:07:45;101725.54;;;16.12;42.52
77086;BME280;66014;53.134;18.006;2023-06-04T06:10:12;101723.71;;;16.92;41.35
77086;BME280;66014;53.134;18.006;2023-06-04T06:12:38;101729.13;;;18.14;39.94
77086;BME280;66014;53.134;18.006;2023-06-04T06:15:04;101730.15;;;19.37;38.71
77086;BME280;66014;53.134;18.006;2023-06-04T06:17:31;101731.73;;;20.60;36.97
77086;BME280;66014;53.134;18.006;2023-06-04T06:19:58;101731.64;;;21.73;35.57
77086;BME280;66014;53.134;18.006;2023-06-04T06:22:24;101733.08;;;22.81;34.24
77086;BME280;66014;53.134;18.006;2023-06-04T06:24:50;101736.83;;;23.86;32.73
77086;BME280;66014;53.134;18.006;2023-06-04T06:27:17;101737.44;;;24.73;31.12
77086;BME280;66014;53.134;18.006;2023-06-04T06:29:43;101733.31;;;25.56;30.47
77086;BME280;66014;53.134;18.006;2023-06-04T06:32:10;101731.20;;;26.50;29.04
77086;BME280;66014;53.134;18.006;2023-06-04T06:34:36;101735.66;;;27.43;27.80
77086;BME280;66014;53.134;18.006;2023-06-04T06:37:03;101734.26;;;28.20;25.78
77086;BME280;66014;53.134;18.006;2023-06-04T06:39:29;101734.48;;;28.74;25.43
77086;BME280;66014;53.134;18.006;2023-06-04T06:41:55;101732.70;;;29.45;24.36
77086;BME280;66014;53.134;18.006;2023-06-04T06:44:21;101741.29;;;30.22;23.24
77086;BME280;66014;53.134;18.006;2023-06-04T06:46:47;101738.41;;;30.85;22.12
77086;BME280;66014;53.134;18.006;2023-06-04T06:49:15;101739.72;;;31.33;21.27
77086;BME280;66014;53.134;18.006;2023-06-04T06:51:41;101735.56;;;31.72;20.02
77086;BME280;66014;53.134;18.006;2023-06-04T06:54:08;101733.49;;;32.02;18.66
77086;BME280;66014;53.134;18.006;2023-06-04T06:56:37;101732.85;;;32.14;18.07
77086;BME280;66014;53.134;18.006;2023-06-04T06:59:02;101733.62;;;32.19;17.76
77086;BME280;66014;53.134;18.006;2023-06-04T07:01:29;101738.27;;;32.58;17.20
77086;BME280;66014;53.134;18.006;2023-06-04T07:03:56;101736.23;;;32.89;16.46
77086;BME280;66014;53.134;18.006;2023-06-04T07:06:21;101728.34;;;33.20;16.00
77086;BME280;66014;53.134;18.006;2023-06-04T07:08:58;101730.60;;;33.68;15.92
77086;BME280;66014;53.134;18.006;2023-06-04T07:11:24;101724.14;;;34.27;15.46
77086;BME280;66014;53.134;18.006;2023-06-04T07:13:51;101726.09;;;34.60;14.76
77086;BME280;66014;53.134;18.006;2023-06-04T07:16:17;101726.44;;;34.88;14.45
77086;BME280;66014;53.134;18.006;2023-06-04T07:18:47;101727.15;;;35.03;13.76
77086;BME280;66014;53.134;18.006;2023-06-04T07:21:14;101726.24;;;35.26;13.95
77086;BME280;66014;53.134;18.006;2023-06-04T07:23:40;101726.68;;;35.62;13.40
77086;BME280;66014;53.134;18.006;2023-06-04T07:26:06;101724.75;;;35.97;13.28
77086;BME280;66014;53.134;18.006;2023-06-04T07:28:32;101724.63;;;36.38;12.95
77086;BME280;66014;53.134;18.006;2023-06-04T07:30:58;101730.72;;;36.77;12.60
77086;BME280;66014;53.134;18.006;2023-06-04T07:33:26;101730.62;;;36.84;12.24
77086;BME280;66014;53.134;18.006;2023-06-04T07:35:54;101729.35;;;36.64;12.27
77086;BME280;66014;53.134;18.006;2023-06-04T07:38:21;101728.88;;;36.69;12.12
77086;BME280;66014;53.134;18.006;2023-06-04T07:40:48;101729.60;;;36.93;11.96
77086;BME280;66014;53.134;18.006;2023-06-04T07:43:16;101725.09;;;36.91;11.72
77086;BME280;66014;53.134;18.006;2023-06-04T07:45:42;101722.30;;;36.46;11.91
77086;BME280;66014;53.134;18.006;2023-06-04T07:48:10;101718.84;;;36.43;11.92
77086;BME280;66014;53.134;18.006;2023-06-04T07:50:39;101718.59;;;36.48;12.03
77086;BME280;66014;53.134;18.006;2023-06-04T07:53:05;101721.38;;;37.00;12.13
77086;BME280;66014;53.134;18.006;2023-06-04T07:55:33;101720.83;;;37.68;11.47
77086;BME280;66014;53.134;18.006;2023-06-04T07:58:03;101718.95;;;38.18;11.13
77086;BME280;66014;53.134;18.006;2023-06-04T08:00:28;101716.02;;;38.65;11.08
77086;BME280;66014;53.134;18.006;2023-06-04T08:02:54;101715.39;;;38.77;10.62
77086;BME280;66014;53.134;18.006;2023-06-04T08:05:22;101712.30;;;39.09;10.86
77086;BME280;66014;53.134;18.006;2023-06-04T08:07:48;101720.98;;;39.79;10.16
77086;BME280;66014;53.134;18.006;2023-06-04T08:10:14;101711.84;;;40.08;9.46
77086;BME280;66014;53.134;18.006;2023-06-04T08:12:40;101713.63;;;40.30;9.64
77086;BME280;66014;53.134;18.006;2023-06-04T08:15:06;101717.14;;;40.50;9.07
77086;BME280;66014;53.134;18.006;2023-06-04T08:17:32;101716.95;;;40.63;9.10
77086;BME280;66014;53.134;18.006;2023-06-04T08:19:58;101714.32;;;40.91;8.75
77086;BME280;66014;53.134;18.006;2023-06-04T08:22:24;101715.91;;;41.41;8.36
77086;BME280;66014;53.134;18.006;2023-06-04T08:24:50;101714.70;;;41.64;8.46
77086;BME280;66014;53.134;18.006;2023-06-04T08:27:16;101715.64;;;41.73;8.09
77086;BME280;66014;53.134;18.006;2023-06-04T08:29:43;101713.85;;;41.69;8.28
77086;BME280;66014;53.134;18.006;2023-06-04T08:32:09;101711.90;;;41.95;8.12
77086;BME280;66014;53.134;18.006;2023-06-04T08:34:35;101704.27;;;42.46;8.13
77086;BME280;66014;53.134;18.006;2023-06-04T08:37:00;101702.61;;;42.94;7.78
77086;BME280;66014;53.134;18.006;2023-06-04T08:39:26;101706.32;;;43.31;7.70
77086;BME280;66014;53.134;18.006;2023-06-04T08:41:55;101707.05;;;43.61;7.40
77086;BME280;66014;53.134;18.006;2023-06-04T08:44:27;101706.42;;;43.53;7.60
77086;BME280;66014;53.134;18.006;2023-06-04T08:46:53;101701.31;;;43.57;7.42
77086;BME280;66014;53.134;18.006;2023-06-04T08:49:19;101695.91;;;43.56;7.59
77086;BME280;66014;53.134;18.006;2023-06-04T08:51:47;101699.60;;;43.92;7.50
77086;BME280;66014;53.134;18.006;2023-06-04T08:54:13;101696.02;;;44.30;7.24
77086;BME280;66014;53.134;18.006;2023-06-04T08:56:40;101694.07;;;44.54;7.09
77086;BME280;66014;53.134;18.006;2023-06-04T08:59:07;101699.78;;;44.87;7.02
77086;BME280;66014;53.134;18.006;2023-06-04T09:01:37;101696.02;;;45.08;7.00
77086;BME280;66014;53.134;18.006;2023-06-04T09:04:06;101698.84;;;45.29;7.03
77086;BME280;66014;53.134;18.006;2023-06-04T09:06:33;101702.88;;;45.63;6.91
77086;BME280;66014;53.134;18.006;2023-06-04T09:09:03;101697.60;;;45.74;6.74
77086;BME280;66014;53.134;18.006;2023-06-04T09:11:35;101696.74;;;45.77;6.48
77086;BME280;66014;53.134;18.006;2023-06-04T09:14:06;101693.55;;;45.70;6.47
77086;BME280;66014;53.134;18.006;2023-06-04T09:16:42;101690.70;;;45.60;6.68
77086;BME280;66014;53.134;18.006;2023-06-04T09:19:08;101693.39;;;45.47;6.35
77086;BME280;66014;53.134;18.006;2023-06-04T09:21:34;101689.15;;;45.05;6.28
77086;BME280;66014;53.134;18.006;2023-06-04T09:24:11;101686.11;;;44.13;6.59
77086;BME280;66014;53.134;18.006;2023-06-04T09:26:36;101686.73;;;43.28;6.84
77086;BME280;66014;53.134;18.006;2023-06-04T09:29:04;101682.48;;;43.04;7.07
77086;BME280;66014;53.134;18.006;2023-06-04T09:31:31;101681.60;;;43.59;7.26
77086;BME280;66014;53.134;18.006;2023-06-04T09:34:04;101682.33;;;44.11;6.69
77086;BME280;66014;53.134;18.006;2023-06-04T09:36:34;101684.70;;;44.04;6.81
77086;BME280;66014;53.134;18.006;2023-06-04T09:39:15;101678.10;;;43.47;7.04
77086;BME280;66014;53.134;18.006;2023-06-04T09:41:42;101682.05;;;43.28;7.16
77086;BME280;66014;53.134;18.006;2023-06-04T09:44:08;101675.98;;;43.32;7.16
77086;BME280;66014;53.134;18.006;2023-06-04T09:46:36;101673.58;;;43.20;7.17
77086;BME280;66014;53.134;18.006;2023-06-04T09:49:03;101671.77;;;43.69;7.11
77086;BME280;66014;53.134;18.006;2023-06-04T09:51:30;101671.30;;;43.82;7.03
77086;BME280;66014;53.134;18.006;2023-06-04T09:54:00;101666.22;;;43.77;6.87
77086;BME280;66014;53.134;18.006;2023-06-04T09:56:27;101665.23;;;43.86;7.00
77086;BME280;66014;53.134;18.006;2023-06-04T09:58:55;101662.66;;;44.31;6.86
77086;BME280;66014;53.134;18.006;2023-06-04T10:01:22;101662.63;;;44.82;6.74
77086;BME280;66014;53.134;18.006;2023-06-04T10:03:50;101664.13;;;45.22;6.58
77086;BME280;66014;53.134;18.006;2023-06-04T10:06:17;101662.95;;;45.66;6.65
77086;BME280;66014;53.134;18.006;2023-06-04T10:08:45;101659.38;;;46.04;6.25
77086;BME280;66014;53.134;18.006;2023-06-04T10:11:13;101654.16;;;46.32;6.27
77086;BME280;66014;53.134;18.006;2023-06-04T10:13:51;101655.52;;;46.57;6.05
77086;BME280;66014;53.134;18.006;2023-06-04T10:16:19;101651.86;;;46.90;6.03
77086;BME280;66014;53.134;18.006;2023-06-04T10:18:46;101655.01;;;47.17;5.94
77086;BME280;66014;53.134;18.006;2023-06-04T10:21:17;101655.59;;;47.39;5.66
77086;BME280;66014;53.134;18.006;2023-06-04T10:23:44;101657.13;;;47.73;5.32
77086;BME280;66014;53.134;18.006;2023-06-04T10:26:13;101656.41;;;47.65;5.39
77086;BME280;66014;53.134;18.006;2023-06-04T10:28:41;101655.04;;;47.43;5.37
77086;BME280;66014;53.134;18.006;2023-06-04T10:31:10;101658.14;;;46.68;5.68
77086;BME280;66014;53.134;18.006;2023-06-04T10:33:38;101656.41;;;46.06;5.56
77086;BME280;66014;53.134;18.006;2023-06-04T10:36:19;101652.00;;;45.55;5.95
77086;BME280;66014;53.134;18.006;2023-06-04T10:38:47;101654.66;;;45.66;5.95
77086;BME280;66014;53.134;18.006;2023-06-04T10:41:14;101649.33;;;46.14;5.60
77086;BME280;66014;53.134;18.006;2023-06-04T10:43:41;101647.09;;;46.44;5.85
77086;BME280;66014;53.134;18.006;2023-06-04T10:46:14;101649.15;;;46.75;5.94
77086;BME280;66014;53.134;18.006;2023-06-04T10:48:51;101648.29;;;47.09;5.57
77086;BME280;66014;53.134;18.006;2023-06-04T10:51:31;101648.98;;;47.37;5.42
77086;BME280;66014;53.134;18.006;2023-06-04T10:53:59;101652.45;;;47.37;5.29
77086;BME280;66014;53.134;18.006;2023-06-04T10:58:52;101647.29;;;46.25;5.48
77086;BME280;66014;53.134;18.006;2023-06-04T11:01:24;101641.24;;;45.99;5.77
77086;BME280;66014;53.134;18.006;2023-06-04T11:03:50;101637.50;;;45.93;5.57
77086;BME280;66014;53.134;18.006;2023-06-04T11:06:17;101633.77;;;45.66;5.75
77086;BME280;66014;53.134;18.006;2023-06-04T11:08:43;101632.86;;;44.84;6.01
77086;BME280;66014;53.134;18.006;2023-06-04T11:11:11;101636.48;;;44.92;6.03
77086;BME280;66014;53.134;18.006;2023-06-04T11:13:38;101637.08;;;44.26;6.23
77086;BME280;66014;53.134;18.006;2023-06-04T11:16:14;101635.64;;;44.33;6.37
77086;BME280;66014;53.134;18.006;2023-06-04T11:18:41;101631.66;;;44.59;6.19
77086;BME280;66014;53.134;18.006;2023-06-04T11:21:08;101634.84;;;43.66;6.49
77086;BME280;66014;53.134;18.006;2023-06-04T11:23:34;101630.82;;;42.72;6.62
77086;BME280;66014;53.134;18.006;2023-06-04T11:26:00;101629.00;;;42.39;6.89
77086;BME280;66014;53.134;18.006;2023-06-04T11:28:26;101633.10;;;42.40;6.94
77086;BME280;66014;53.134;18.006;2023-06-04T11:31:00;101627.21;;;42.04;7.14
77086;BME280;66014;53.134;18.006;2023-06-04T11:33:47;101629.65;;;41.41;7.33
77086;BME280;66014;53.134;18.006;2023-06-04T11:36:26;101630.23;;;41.07;7.46
77086;BME280;66014;53.134;18.006;2023-06-04T11:39:03;101633.90;;;40.84;7.66
77086;BME280;66014;53.134;18.006;2023-06-04T11:41:33;101632.33;;;40.66;7.62
77086;BME280;66014;53.134;18.006;2023-06-04T11:44:04;101629.53;;;40.55;7.78
77086;BME280;66014;53.134;18.006;2023-06-04T11:46:34;101627.52;;;40.70;7.72
77086;BME280;66014;53.134;18.006;2023-06-04T11:49:04;101621.58;;;41.17;7.57
77086;BME280;66014;53.134;18.006;2023-06-04T11:51:30;101619.70;;;41.58;7.53
77086;BME280;66014;53.134;18.006;2023-06-04T11:53:56;101613.59;;;41.44;7.22
77086;BME280;66014;53.134;18.006;2023-06-04T11:56:24;101619.15;;;41.19;7.58
77086;BME280;66014;53.134;18.006;2023-06-04T11:58:53;101616.90;;;41.34;7.47
77086;BME280;66014;53.134;18.006;2023-06-04T12:01:19;101608.30;;;41.75;7.70
77086;BME280;66014;53.134;18.006;2023-06-04T12:03:45;101603.96;;;42.14;7.38
77086;BME280;66014;53.134;18.006;2023-06-04T12:06:16;101602.45;;;42.58;7.30
77086;BME280;66014;53.134;18.006;2023-06-04T12:11:26;101603.94;;;43.30;7.22
77086;BME280;66014;53.134;18.006;2023-06-04T12:13:55;101605.80;;;43.49;7.05
77086;BME280;66014;53.134;18.006;2023-06-04T12:16:23;101607.34;;;43.56;6.88
77086;BME280;66014;53.134;18.006;2023-06-04T12:18:49;101606.48;;;43.21;6.80
77086;BME280;66014;53.134;18.006;2023-06-04T12:21:22;101607.16;;;41.95;7.04
77086;BME280;66014;53.134;18.006;2023-06-04T12:24:09;101609.85;;;40.49;7.83
77086;BME280;66014;53.134;18.006;2023-06-04T12:26:36;101602.41;;;39.18;8.26
77086;BME280;66014;53.134;18.006;2023-06-04T12:29:17;101599.02;;;38.12;8.68
77086;BME280;66014;53.134;18.006;2023-06-04T12:31:46;101596.18;;;36.68;9.30
77086;BME280;66014;53.134;18.006;2023-06-04T12:34:13;101598.64;;;35.52;9.81
77086;BME280;66014;53.134;18.006;2023-06-04T12:36:39;101593.67;;;34.62;10.53
77086;BME280;66014;53.134;18.006;2023-06-04T12:39:07;101595.06;;;33.91;11.03
77086;BME280;66014;53.134;18.006;2023-06-04T12:41:33;101592.56;;;33.35;11.13
77086;BME280;66014;53.134;18.006;2023-06-04T12:44:03;101594.05;;;33.05;11.68
77086;BME280;66014;53.134;18.006;2023-06-04T12:46:29;101593.23;;;32.39;12.29
77086;BME280;66014;53.134;18.006;2023-06-04T12:48:55;101599.80;;;31.69;12.61
77086;BME280;66014;53.134;18.006;2023-06-04T12:51:22;101597.18;;;30.98;13.08
77086;BME280;66014;53.134;18.006;2023-06-04T12:53:50;101597.12;;;30.50;13.48
77086;BME280;66014;53.134;18.006;2023-06-04T12:56:17;101597.65;;;30.21;13.91
77086;BME280;66014;53.134;18.006;2023-06-04T12:58:43;101592.67;;;30.12;14.05
77086;BME280;66014;53.134;18.006;2023-06-04T13:01:09;101592.64;;;30.10;14.03
77086;BME280;66014;53.134;18.006;2023-06-04T13:03:37;101597.41;;;29.98;14.24
77086;BME280;66014;53.134;18.006;2023-06-04T13:06:03;101595.54;;;29.90;14.35
77086;BME280;66014;53.134;18.006;2023-06-04T13:08:29;101591.83;;;29.83;14.42
77086;BME280;66014;53.134;18.006;2023-06-04T13:10:55;101591.98;;;29.76;14.65
77086;BME280;66014;53.134;18.006;2023-06-04T13:13:21;101596.70;;;29.75;14.63
77086;BME280;66014;53.134;18.006;2023-06-04T13:15:47;101596.02;;;29.67;14.59